createdAt,value
2022-10-03T00:02:10.045Z,15.98
2022-10-03T00:04:36.243Z,16.28
2022-10-03T00:07:02.567Z,16.48
2022-10-03T00:09:28.914Z,16.57
2022-10-03T00:11:55.277Z,16.37
2022-10-03T00:14:21.598Z,16.19
2022-10-03T00:16:47.979Z,16.14
2022-10-03T00:19:14.422Z,16.03
2022-10-03T00:21:41.321Z,15.85
2022-10-03T00:24:07.066Z,15.90
2022-10-03T00:26:33.412Z,15.84
2022-10-03T00:28:59.756Z,16.02
2022-10-03T00:31:26.279Z,15.91
2022-10-03T00:33:52.439Z,15.51
2022-10-03T00:36:18.784Z,15.47
2022-10-03T00:38:45.101Z,15.69
2022-10-03T00:41:11.444Z,15.67
2022-10-03T00:43:37.816Z,15.57
2022-10-03T00:46:04.242Z,15.45
2022-10-03T00:48:30.492Z,15.26
2022-10-03T00:50:56.844Z,15.06
2022-10-03T00:53:23.150Z,15.07
2022-10-03T00:55:49.495Z,14.96
2022-10-03T00:58:15.818Z,15.13
2022-10-03T01:00:42.179Z,15.19
2022-10-03T01:03:08.475Z,15.17
2022-10-03T01:05:34.800Z,15.36
2022-10-03T01:08:01.140Z,15.31
2022-10-03T01:10:27.462Z,15.26
2022-10-03T01:12:53.843Z,15.25
2022-10-03T01:15:20.173Z,15.35
2022-10-03T01:17:46.491Z,15.36
2022-10-03T01:20:12.836Z,15.25
2022-10-03T01:22:39.178Z,15.33
2022-10-03T01:25:05.516Z,15.37
2022-10-03T01:27:31.881Z,15.16
2022-10-03T01:29:58.200Z,14.83
2022-10-03T01:32:24.538Z,14.55
2022-10-03T01:34:50.859Z,14.67
2022-10-03T01:37:17.199Z,14.77
2022-10-03T01:39:43.517Z,14.79
2022-10-03T01:42:09.861Z,14.92
2022-10-03T01:44:36.180Z,14.83
2022-10-03T01:47:02.522Z,14.69
2022-10-03T01:49:28.856Z,14.74
2022-10-03T01:51:55.170Z,14.91
2022-10-03T01:54:21.491Z,15.00
2022-10-03T01:56:47.861Z,15.32
2022-10-03T01:59:14.202Z,15.60
2022-10-03T02:01:40.843Z,15.80
2022-10-03T02:04:06.883Z,15.80
2022-10-03T02:06:33.200Z,15.86
2022-10-03T02:08:59.525Z,15.90
2022-10-03T02:11:25.845Z,15.74
2022-10-03T02:13:52.209Z,15.80
2022-10-03T02:16:18.576Z,15.43
2022-10-03T02:18:44.886Z,15.19
2022-10-03T02:21:11.224Z,15.13
2022-10-03T02:23:37.565Z,15.01
2022-10-03T02:26:03.882Z,14.95
2022-10-03T02:28:30.284Z,14.86
2022-10-03T02:30:56.540Z,14.75
2022-10-03T02:33:22.887Z,14.80
2022-10-03T02:35:49.221Z,14.80
2022-10-03T02:38:15.591Z,14.66
2022-10-03T02:40:41.926Z,14.52
2022-10-03T02:43:08.278Z,14.52
2022-10-03T02:45:34.653Z,14.46
2022-10-03T02:48:27.092Z,14.33
2022-10-03T02:50:27.312Z,14.23
2022-10-03T02:52:53.661Z,14.22
2022-10-03T02:55:19.998Z,14.19
2022-10-03T02:57:46.339Z,14.16
2022-10-03T03:00:12.659Z,14.08
2022-10-03T03:02:38.981Z,14.09
2022-10-03T03:05:05.299Z,14.22
2022-10-03T03:07:31.645Z,14.40
2022-10-03T03:09:57.966Z,14.54
2022-10-03T03:12:24.306Z,14.51
2022-10-03T03:14:50.621Z,14.70
2022-10-03T03:17:16.966Z,14.56
2022-10-03T03:19:43.319Z,14.48
2022-10-03T03:22:09.665Z,14.39
2022-10-03T03:24:35.999Z,14.54
2022-10-03T03:27:02.340Z,14.61
2022-10-03T03:29:28.657Z,14.50
2022-10-03T03:31:55.065Z,14.58
2022-10-03T03:34:21.321Z,14.73
2022-10-03T03:36:47.661Z,14.85
2022-10-03T03:39:13.997Z,14.91
2022-10-03T03:41:40.578Z,15.03
2022-10-03T03:44:06.670Z,15.16
2022-10-03T03:46:33.022Z,15.16
2022-10-03T03:48:59.362Z,15.02
2022-10-03T03:51:25.682Z,15.17
2022-10-03T03:53:52.015Z,15.18
2022-10-03T03:56:18.359Z,15.00
2022-10-03T03:58:44.702Z,15.07
2022-10-03T04:01:11.087Z,15.07
2022-10-03T04:03:37.358Z,15.00
2022-10-03T04:06:03.677Z,14.89
2022-10-03T04:08:30.023Z,14.93
2022-10-03T04:10:56.354Z,14.86
2022-10-03T04:13:22.697Z,14.81
2022-10-03T04:15:49.040Z,14.80
2022-10-03T04:18:15.355Z,14.69
2022-10-03T04:20:41.691Z,14.60
2022-10-03T04:23:08.055Z,14.64
2022-10-03T04:25:34.442Z,14.63
2022-10-03T04:28:00.852Z,14.68
2022-10-03T04:30:27.098Z,14.67
2022-10-03T04:32:53.430Z,14.77
2022-10-03T04:35:19.747Z,14.83
2022-10-03T04:37:46.108Z,14.95
2022-10-03T04:40:12.486Z,14.98
2022-10-03T04:42:38.799Z,15.06
2022-10-03T04:45:05.121Z,14.88
2022-10-03T04:47:31.468Z,14.93
2022-10-03T04:49:57.823Z,14.91
2022-10-03T04:52:24.170Z,14.81
2022-10-03T04:54:50.507Z,14.84
2022-10-03T04:57:16.891Z,14.98
2022-10-03T04:59:43.208Z,15.07
2022-10-03T05:02:09.620Z,15.19
2022-10-03T05:04:35.854Z,15.29
2022-10-03T05:07:02.203Z,15.17
2022-10-03T05:09:28.514Z,15.17
2022-10-03T05:11:54.833Z,15.07
2022-10-03T05:14:21.157Z,15.06
2022-10-03T05:16:47.586Z,15.31
2022-10-03T05:19:13.842Z,15.42
2022-10-03T05:21:40.657Z,15.43
2022-10-03T05:24:06.553Z,15.63
2022-10-03T05:26:44.576Z,15.67
2022-10-03T05:28:59.270Z,15.61
2022-10-03T05:31:25.654Z,15.64
2022-10-03T05:33:51.932Z,15.84
2022-10-03T05:36:18.307Z,15.92
2022-10-03T05:38:44.641Z,15.97
2022-10-03T05:41:10.983Z,16.38
2022-10-03T05:43:37.299Z,16.50
2022-10-03T05:46:03.704Z,16.43
2022-10-03T05:48:29.957Z,16.42
2022-10-03T05:50:56.314Z,16.48
2022-10-03T05:53:22.671Z,16.58
2022-10-03T05:55:48.992Z,16.66
2022-10-03T05:58:15.326Z,16.80
2022-10-03T06:00:41.656Z,16.99
2022-10-03T06:03:08.106Z,17.15
2022-10-03T06:05:34.399Z,17.15
2022-10-03T06:08:00.726Z,17.21
2022-10-03T06:10:27.037Z,17.15
2022-10-03T06:12:53.377Z,17.11
2022-10-03T06:15:19.908Z,17.14
2022-10-03T06:17:46.245Z,17.91
2022-10-03T06:20:12.595Z,17.91
2022-10-03T06:22:38.954Z,18.41
2022-10-03T06:25:05.319Z,18.44
2022-10-03T06:27:31.631Z,18.55
2022-10-03T06:29:57.990Z,18.16
2022-10-03T06:32:24.328Z,17.97
2022-10-03T06:34:50.645Z,18.00
2022-10-03T06:37:16.970Z,17.94
2022-10-03T06:39:43.306Z,17.87
2022-10-03T06:42:09.647Z,17.87
2022-10-03T06:44:35.982Z,17.92
2022-10-03T06:47:02.354Z,17.86
2022-10-03T06:49:28.670Z,17.77
2022-10-03T06:51:55.005Z,17.80
2022-10-03T06:54:21.365Z,17.79
2022-10-03T06:56:50.081Z,17.73
2022-10-03T06:59:14.053Z,17.62
2022-10-03T07:01:40.754Z,17.59
2022-10-03T07:04:06.757Z,17.62
2022-10-03T07:06:33.050Z,17.59
2022-10-03T07:08:59.422Z,17.44
2022-10-03T07:11:25.756Z,17.45
2022-10-03T07:13:52.080Z,17.40
2022-10-03T07:16:26.907Z,17.23
2022-10-03T07:18:44.764Z,17.22
2022-10-03T07:21:14.798Z,17.08
2022-10-03T07:23:37.556Z,16.91
2022-10-03T07:26:03.894Z,16.74
2022-10-03T07:28:30.442Z,16.72
2022-10-03T07:30:56.627Z,16.65
2022-10-03T07:33:23.027Z,16.61
2022-10-03T07:35:49.280Z,16.75
2022-10-03T07:38:15.596Z,16.76
2022-10-03T07:40:41.935Z,16.70
2022-10-03T07:43:08.278Z,16.65
2022-10-03T07:45:34.693Z,16.68
2022-10-03T07:48:00.988Z,16.76
2022-10-03T07:50:27.323Z,16.86
2022-10-03T07:52:53.676Z,16.95
2022-10-03T07:55:19.997Z,17.02
2022-10-03T07:57:46.340Z,17.22
2022-10-03T08:00:12.681Z,17.22
2022-10-03T08:02:39.144Z,17.25
2022-10-03T08:05:05.318Z,17.39
2022-10-03T08:07:31.670Z,17.43
2022-10-03T08:09:57.983Z,17.48
2022-10-03T08:12:24.308Z,17.55
2022-10-03T08:14:50.648Z,17.54
2022-10-03T08:17:16.970Z,17.69
2022-10-03T08:19:43.292Z,17.79
2022-10-03T08:22:09.630Z,17.80
2022-10-03T08:24:35.956Z,17.81
2022-10-03T08:27:02.300Z,17.81
2022-10-03T08:29:28.633Z,17.78
2022-10-03T08:31:54.957Z,17.88
2022-10-03T08:34:21.292Z,17.98
2022-10-03T08:36:47.633Z,18.10
2022-10-03T08:39:13.986Z,18.22
2022-10-03T08:41:40.515Z,18.22
2022-10-03T08:44:06.649Z,18.28
2022-10-03T08:46:33.027Z,18.29
2022-10-03T08:48:59.322Z,18.37
2022-10-03T08:51:25.667Z,18.47
2022-10-03T08:53:51.979Z,18.45
2022-10-03T08:56:18.321Z,18.50
2022-10-03T08:58:44.653Z,18.44
2022-10-03T09:01:11.015Z,18.35
2022-10-03T09:03:42.084Z,18.44
2022-10-03T09:06:03.673Z,18.54
2022-10-03T09:08:29.977Z,18.63
2022-10-03T09:10:56.301Z,18.76
2022-10-03T09:13:22.632Z,18.79
2022-10-03T09:15:49.015Z,18.75
2022-10-03T09:18:15.286Z,18.99
2022-10-03T09:20:41.639Z,19.00
2022-10-03T09:23:07.966Z,19.10
2022-10-03T09:25:34.297Z,19.04
2022-10-03T09:28:00.665Z,19.05
2022-10-03T09:30:26.955Z,19.01
2022-10-03T09:32:53.258Z,18.89
2022-10-03T09:35:19.847Z,18.75
2022-10-03T09:37:46.174Z,18.89
2022-10-03T09:40:12.532Z,19.03
2022-10-03T09:42:38.877Z,19.60
2022-10-03T09:45:05.267Z,20.26
2022-10-03T09:47:31.572Z,20.32
2022-10-03T09:49:57.890Z,20.19
2022-10-03T09:52:24.237Z,19.82
2022-10-03T09:54:50.569Z,19.82
2022-10-03T09:57:22.046Z,19.81
2022-10-03T09:59:43.240Z,20.08
2022-10-03T10:02:09.606Z,21.22
2022-10-03T10:04:53.541Z,22.13
2022-10-03T10:07:02.295Z,22.43
2022-10-03T10:09:28.662Z,22.03
2022-10-03T10:11:54.983Z,21.37
2022-10-03T10:14:21.302Z,20.97
2022-10-03T10:16:48.595Z,20.87
2022-10-03T10:19:14.002Z,20.92
2022-10-03T10:21:40.323Z,20.91
2022-10-03T10:24:06.679Z,20.88
2022-10-03T10:26:33.011Z,20.82
2022-10-03T10:28:59.332Z,21.06
2022-10-03T10:31:25.719Z,21.26
2022-10-03T10:33:51.972Z,21.27
2022-10-03T10:36:18.274Z,21.36
2022-10-03T10:38:44.646Z,21.43
2022-10-03T10:41:10.991Z,21.19
2022-10-03T10:43:37.321Z,21.17
2022-10-03T10:46:03.646Z,21.21
2022-10-03T10:48:29.982Z,21.05
2022-10-03T10:50:56.315Z,20.95
2022-10-03T10:53:22.637Z,20.91
2022-10-03T10:55:48.973Z,21.10
2022-10-03T10:58:15.333Z,20.98
2022-10-03T11:00:41.671Z,21.59
2022-10-03T11:03:07.961Z,21.58
2022-10-03T11:05:34.305Z,21.67
2022-10-03T11:08:00.625Z,22.37
2022-10-03T11:10:26.940Z,21.78
2022-10-03T11:12:53.328Z,21.95
2022-10-03T11:15:19.629Z,21.69
2022-10-03T11:17:45.965Z,21.13
2022-10-03T11:20:12.314Z,20.75
2022-10-03T11:22:38.648Z,20.45
2022-10-03T11:25:04.982Z,20.24
2022-10-03T11:27:31.346Z,20.60
2022-10-03T11:29:57.644Z,20.56
2022-10-03T11:32:23.977Z,21.49
2022-10-03T11:34:50.303Z,21.28
2022-10-03T11:37:16.663Z,21.25
2022-10-03T11:39:43.033Z,20.87
2022-10-03T11:42:09.356Z,20.63
2022-10-03T11:44:35.673Z,20.55
2022-10-03T11:47:02.052Z,21.40
2022-10-03T11:49:28.463Z,21.76
2022-10-03T11:51:54.781Z,22.09
2022-10-03T11:54:31.029Z,21.56
2022-10-03T11:56:47.489Z,21.57
2022-10-03T11:59:13.913Z,21.34
2022-10-03T12:01:40.568Z,21.11
2022-10-03T12:04:06.621Z,21.49
2022-10-03T12:06:32.933Z,21.36
2022-10-03T12:08:59.256Z,21.75
2022-10-03T12:11:25.620Z,21.73
2022-10-03T12:13:51.950Z,22.30
2022-10-03T12:16:18.329Z,22.83
2022-10-03T12:18:44.645Z,23.09
2022-10-03T12:21:10.973Z,23.58
2022-10-03T12:23:37.298Z,23.67
2022-10-03T12:26:03.680Z,23.78
2022-10-03T12:28:30.035Z,23.66
2022-10-03T12:30:56.315Z,23.71
2022-10-03T12:33:22.690Z,23.48
2022-10-03T12:35:49.026Z,23.71
2022-10-03T12:38:15.360Z,23.74
2022-10-03T12:40:41.683Z,23.72
2022-10-03T12:43:08.001Z,23.73
2022-10-03T12:45:34.363Z,23.67
2022-10-03T12:48:00.663Z,23.70
2022-10-03T12:50:27.004Z,23.12
2022-10-03T12:52:53.342Z,22.91
2022-10-03T12:55:19.675Z,23.03
2022-10-03T12:57:45.978Z,22.87
2022-10-03T13:00:12.300Z,22.50
2022-10-03T13:02:38.751Z,22.19
2022-10-03T13:05:05.020Z,22.12
2022-10-03T13:07:31.342Z,21.94
2022-10-03T13:09:57.715Z,21.64
2022-10-03T13:12:27.694Z,21.44
2022-10-03T13:14:50.373Z,21.29
2022-10-03T13:17:16.714Z,21.19
2022-10-03T13:19:43.058Z,20.74
2022-10-03T13:22:10.404Z,20.60
2022-10-03T13:24:36.766Z,20.61
2022-10-03T13:27:03.082Z,20.95
2022-10-03T13:29:29.425Z,21.03
2022-10-03T13:31:55.766Z,21.14
2022-10-03T13:34:22.100Z,21.34
2022-10-03T13:36:48.415Z,21.43
2022-10-03T13:39:14.747Z,21.38
2022-10-03T13:41:41.516Z,21.30
2022-10-03T13:44:07.413Z,21.11
2022-10-03T13:46:33.868Z,20.98
2022-10-03T13:49:02.179Z,20.84
2022-10-03T13:51:26.459Z,20.93
2022-10-03T13:53:52.780Z,20.86
2022-10-03T13:56:19.090Z,20.80
2022-10-03T13:58:45.444Z,20.74
2022-10-03T14:01:11.826Z,20.77
2022-10-03T14:03:38.149Z,20.75
2022-10-03T14:06:04.463Z,20.70
2022-10-03T14:08:30.800Z,20.73
2022-10-03T14:10:57.134Z,20.76
2022-10-03T14:13:23.510Z,20.67
2022-10-03T14:15:49.929Z,20.51
2022-10-03T14:18:16.208Z,20.44
2022-10-03T14:20:42.510Z,20.58
2022-10-03T14:23:08.826Z,20.55
2022-10-03T14:25:35.185Z,20.57
2022-10-03T14:28:01.619Z,20.55
2022-10-03T14:30:27.838Z,20.57
2022-10-03T14:32:54.260Z,20.56
2022-10-03T14:35:20.529Z,20.33
2022-10-03T14:37:46.862Z,20.27
2022-10-03T14:40:13.180Z,20.22
2022-10-03T14:42:39.481Z,20.14
2022-10-03T14:45:05.815Z,20.03
2022-10-03T14:47:32.143Z,20.07
2022-10-03T14:49:59.751Z,19.98
2022-10-03T14:52:24.824Z,19.87
2022-10-03T14:54:51.135Z,19.83
2022-10-03T14:57:17.455Z,19.45
2022-10-03T14:59:43.806Z,19.45
2022-10-03T15:02:10.196Z,19.40
2022-10-03T15:04:36.466Z,19.15
2022-10-03T15:07:02.781Z,19.17
2022-10-03T15:09:29.167Z,19.17
2022-10-03T15:11:55.487Z,19.21
2022-10-03T15:14:21.831Z,19.23
2022-10-03T15:16:48.186Z,19.19
2022-10-03T15:19:14.507Z,19.31
2022-10-03T15:21:41.107Z,19.15
2022-10-03T15:24:07.220Z,19.30
2022-10-03T15:26:33.522Z,19.04
2022-10-03T15:28:59.865Z,19.16
2022-10-03T15:31:26.267Z,19.26
2022-10-03T15:33:52.593Z,19.09
2022-10-03T15:36:18.927Z,19.02
2022-10-03T15:38:45.254Z,18.93
2022-10-03T15:41:11.599Z,18.70
2022-10-03T15:43:37.949Z,18.69
2022-10-03T15:46:04.356Z,18.63
2022-10-03T15:48:30.619Z,18.61
2022-10-03T15:50:56.998Z,18.59
2022-10-03T15:53:38.345Z,18.49
2022-10-03T15:55:49.644Z,18.40
2022-10-03T15:58:15.999Z,18.33
2022-10-03T16:00:42.356Z,18.31
2022-10-03T16:03:08.654Z,18.19
2022-10-03T16:05:34.969Z,18.25
2022-10-03T16:08:01.297Z,18.13
2022-10-03T16:10:27.698Z,18.17
2022-10-03T16:12:54.074Z,18.21
2022-10-03T16:15:20.377Z,18.19
2022-10-03T16:17:46.739Z,18.16
2022-10-03T16:20:13.087Z,18.28
2022-10-03T16:22:39.713Z,18.29
2022-10-03T16:25:06.083Z,18.27
2022-10-03T16:27:32.411Z,18.18
2022-10-03T16:29:58.748Z,18.27
2022-10-03T16:32:25.070Z,18.34
2022-10-03T16:34:51.397Z,18.32
2022-10-03T16:37:17.727Z,18.22
2022-10-03T16:39:46.436Z,18.20
2022-10-03T16:42:10.406Z,18.19
2022-10-03T16:44:36.783Z,18.07
2022-10-03T16:47:03.163Z,18.11
2022-10-03T16:49:29.482Z,18.14
2022-10-03T16:51:55.809Z,18.03
2022-10-03T16:54:22.186Z,17.94
2022-10-03T16:56:48.508Z,17.87
2022-10-03T16:59:14.844Z,17.99
2022-10-03T17:01:41.583Z,18.05
2022-10-03T17:04:07.555Z,17.95
2022-10-03T17:06:33.877Z,17.97
2022-10-03T17:09:00.227Z,17.94
2022-10-03T17:11:26.547Z,18.01
2022-10-03T17:13:52.897Z,18.04
2022-10-03T17:16:19.327Z,17.97
2022-10-03T17:18:45.614Z,17.96
2022-10-03T17:21:11.935Z,17.90
2022-10-03T17:23:38.307Z,17.94
2022-10-03T17:26:04.647Z,17.98
2022-10-03T17:28:31.042Z,17.96
2022-10-03T17:30:57.317Z,17.89
2022-10-03T17:33:23.651Z,17.89
2022-10-03T17:35:49.976Z,17.78
2022-10-03T17:38:44.461Z,17.77
2022-10-03T17:40:42.658Z,17.74
2022-10-03T17:43:08.993Z,17.76
2022-10-03T17:45:35.399Z,17.63
2022-10-03T17:48:01.656Z,17.58
2022-10-03T17:50:27.970Z,17.56
2022-10-03T17:52:54.322Z,17.49
2022-10-03T17:55:20.646Z,17.44
2022-10-03T17:57:46.984Z,17.49
2022-10-03T18:00:13.340Z,17.44
2022-10-03T18:02:39.729Z,17.32
2022-10-03T18:05:05.976Z,17.30
2022-10-03T18:07:32.299Z,17.22
2022-10-03T18:09:58.697Z,17.30
2022-10-03T18:12:25.004Z,17.25
2022-10-03T18:14:51.326Z,17.23
2022-10-03T18:17:17.680Z,17.13
2022-10-03T18:19:44.048Z,17.14
2022-10-03T18:22:10.388Z,17.11
2022-10-03T18:24:36.707Z,17.11
2022-10-03T18:27:03.067Z,17.07
2022-10-03T18:29:29.393Z,16.98
2022-10-03T18:31:55.824Z,17.02
2022-10-03T18:34:22.068Z,17.07
2022-10-03T18:36:48.404Z,16.87
2022-10-03T18:39:14.733Z,16.95
2022-10-03T18:41:41.263Z,16.98
2022-10-03T18:44:07.403Z,17.03
2022-10-03T18:46:33.763Z,17.01
2022-10-03T18:51:26.440Z,17.06
2022-10-03T18:53:52.782Z,17.01
2022-10-03T18:56:19.103Z,17.02
2022-10-03T18:58:45.426Z,17.06
2022-10-03T19:01:11.865Z,17.04
2022-10-03T19:03:38.108Z,17.01
2022-10-03T19:06:04.443Z,16.94
2022-10-03T19:08:30.881Z,16.94
2022-10-03T19:10:57.129Z,16.93
2022-10-03T19:13:23.450Z,16.85
2022-10-03T19:15:49.784Z,16.80
2022-10-03T19:18:16.142Z,16.71
2022-10-03T19:20:42.445Z,16.65
2022-10-03T19:23:08.795Z,16.68
2022-10-03T19:25:35.108Z,16.68
2022-10-03T19:28:01.572Z,16.69
2022-10-03T19:30:27.795Z,16.62
2022-10-03T19:32:54.115Z,16.48
2022-10-03T19:35:20.465Z,16.54
2022-10-03T19:37:46.809Z,16.72
2022-10-03T19:40:13.151Z,16.70
2022-10-03T19:42:39.476Z,16.73
2022-10-03T19:45:05.799Z,16.59
2022-10-03T19:47:32.144Z,16.56
2022-10-03T19:49:58.489Z,16.55
2022-10-03T19:52:24.830Z,16.52
2022-10-03T19:54:51.147Z,16.61
2022-10-03T19:57:17.485Z,16.46
2022-10-03T19:59:43.826Z,16.45
2022-10-03T20:02:10.191Z,16.46
2022-10-03T20:04:37.037Z,16.46
2022-10-03T20:07:02.834Z,16.41
2022-10-03T20:09:29.177Z,16.32
2022-10-03T20:11:55.517Z,16.29
2022-10-03T20:14:21.889Z,16.32
2022-10-03T20:16:48.308Z,16.26
2022-10-03T20:19:14.566Z,16.29
2022-10-03T20:21:41.161Z,16.27
2022-10-03T20:24:07.276Z,16.22
2022-10-03T20:26:33.592Z,16.25
2022-10-03T20:28:59.947Z,16.29
2022-10-03T20:31:26.304Z,16.19
2022-10-03T20:33:52.584Z,16.22
2022-10-03T20:36:18.976Z,16.21
2022-10-03T20:38:45.316Z,16.14
2022-10-03T20:41:11.639Z,16.17
2022-10-03T20:43:41.554Z,16.14
2022-10-03T20:46:04.349Z,16.09
2022-10-03T20:48:30.663Z,15.98
2022-10-03T20:50:56.983Z,16.02
2022-10-03T20:53:23.327Z,15.94
2022-10-03T20:55:49.650Z,15.89
2022-10-03T20:58:15.993Z,15.92
2022-10-03T21:00:42.353Z,15.97
2022-10-03T21:03:08.637Z,15.94
2022-10-03T21:05:35.021Z,15.82
2022-10-03T21:08:01.298Z,15.73
2022-10-03T21:10:27.624Z,15.73
2022-10-03T21:12:53.966Z,15.74
2022-10-03T21:15:20.307Z,15.65
2022-10-03T21:17:46.625Z,15.68
2022-10-03T21:20:12.952Z,15.62
2022-10-03T21:22:39.286Z,15.63
2022-10-03T21:25:05.631Z,15.63
2022-10-03T21:27:31.962Z,15.73
2022-10-03T21:29:58.285Z,15.50
2022-10-03T21:32:24.616Z,15.51
2022-10-03T21:34:50.975Z,15.63
2022-10-03T21:37:17.291Z,15.66
2022-10-03T21:39:43.632Z,15.55
2022-10-03T21:42:09.948Z,15.57
2022-10-03T21:44:36.331Z,15.61
2022-10-03T21:47:02.682Z,15.52
2022-10-03T21:49:29.024Z,15.58
2022-10-03T21:51:55.340Z,15.46
2022-10-03T21:54:21.690Z,15.39
2022-10-03T21:56:48.010Z,15.48
2022-10-03T21:59:14.356Z,15.47
2022-10-03T22:01:40.990Z,15.51
2022-10-03T22:04:07.017Z,15.48
2022-10-03T22:06:33.358Z,15.52
2022-10-03T22:08:59.679Z,15.56
2022-10-03T22:11:26.053Z,15.66
2022-10-03T22:13:52.396Z,15.73
2022-10-03T22:16:18.757Z,15.70
2022-10-03T22:18:45.059Z,15.66
2022-10-03T22:21:11.401Z,15.61
2022-10-03T22:23:37.741Z,15.69
2022-10-03T22:26:04.057Z,15.69
2022-10-03T22:28:30.411Z,15.78
2022-10-03T22:30:56.747Z,15.73
2022-10-03T22:33:23.063Z,15.61
2022-10-03T22:35:49.380Z,15.65
2022-10-03T22:38:15.702Z,15.72
2022-10-03T22:40:42.024Z,15.72
2022-10-03T22:43:08.349Z,15.76
2022-10-03T22:45:34.667Z,15.85
2022-10-03T22:48:01.059Z,15.79
2022-10-03T22:50:27.394Z,15.78
2022-10-03T22:52:53.735Z,15.78
2022-10-03T22:55:20.069Z,15.91
2022-10-03T22:57:46.382Z,15.83
2022-10-03T23:00:12.749Z,15.85
2022-10-03T23:02:39.154Z,15.85
2022-10-03T23:05:05.427Z,15.80
2022-10-03T23:07:31.814Z,15.82
2022-10-03T23:09:58.131Z,15.98
2022-10-03T23:12:24.490Z,15.93
2022-10-03T23:14:50.817Z,15.96
2022-10-03T23:17:17.161Z,15.94
2022-10-03T23:19:43.474Z,15.88
2022-10-03T23:22:09.834Z,15.87
2022-10-03T23:24:36.146Z,15.93
2022-10-03T23:27:02.491Z,15.88
2022-10-03T23:29:28.829Z,15.85
2022-10-03T23:31:55.190Z,15.91
2022-10-03T23:34:21.539Z,15.86
2022-10-03T23:36:47.881Z,15.88
2022-10-03T23:39:14.290Z,15.83
2022-10-03T23:41:40.660Z,15.78
2022-10-03T23:44:06.883Z,15.80
2022-10-03T23:46:33.248Z,15.85
2022-10-03T23:48:59.551Z,15.85
2022-10-03T23:51:25.934Z,15.76
2022-10-03T23:53:52.249Z,15.78
2022-10-03T23:56:18.585Z,15.71
2022-10-03T23:58:45.206Z,15.75
